This site, now in its 15th season, is a labour of love and fun from one of Ottawa's most avid time trialists and number crunchers. It adheres to and is permitted by the laws of Canada, promotes the objectives of every bicycle club whose results are shown, and is donated free of charge by myself for your enjoyment and usage. If you would like results from series you ride in to be shown here, give me (celia@drmath.ca) a shout!


Index Page
ATT OTT WTT AATT CFCTT VVVTT
Help resultformat:
Case-sensitive

OBC Open TT Series - 2018-Jul-26 - 15km (Rockliffe Pkwy)

./local_weather.pl Ottawa Weather (18:00): Partly Cloudy. Temperature: 28.9C, Wind: SW 15 gust 28km/h, Humidex: 33, Relative humidity: 44%, Dew point: 16C, Pressure: 100.8kPa, Visibility: 24km.
Ottawa Weather (19:00): Mostly Cloudy. Temp.erature: 27.0C, Wind: SW 13km/h, Humidex: 32, Relative humidity: 53%, Dew point: 17C, Pressure: 100.9kPa, Visibility: 24km.
Ottawa Weather (20:00): Mostly Cloudy. Temp.erature: 22.6C, Wind: WNW 33 gust 54km/h, Humidex: 26, Relative humidity: 56%, Dew point: 14C, Pressure: 101.0kPa, Visibility: 24km.

Send photos with description (when/where/what) of yourself on or off of bike to celia@drmath.ca

 
 

BESTS?
 
1 Purificati, Justin RWR 18:48 47.872 1/54 SEM 1/3 0.9947
Y 2 Amos, Ron  OBC/RWR 18:58 47.452 2/54 VCM 1/6 1.0812
3 Diaz, Rodrigo  OBC/EUR 19:29 46.193 3/54 VBM 1/10 1.0311
4 Fairhead, Todd TEK 19:44 45.608 4/54 VBM 2/10  
5 Rendall, Glen  RWR 20:01 44.963 5/54 VBM 3/10 0.9606
6 Boileau, Greg NTF 20:17 44.371 6/54 VAM 1/6 1.0913
7 Katz, Joel  OBC/RWR 20:18 44.335 7/54 VDM 1/9 0.9756
8 Miles, Carson OBC 20:30 43.902 8/54 JUM 1/2 0.7940
9 Pérès, Erwan IND 20:33 43.796 9/54 VBM 4/10 0.9759
10 Moltmaker, Tijmen IND 21:08 42.587 10/54 VAM 2/6  
11 Martins, Alex OBC 21:21 42.155 11/54 VBM 5/10 0.9159
12 Page, Graham OBC/NTF 21:49 41.253 12/54 VAM 3/6 0.9263
13 Mullington, Chris WQW 21:56 41.033 13/54 VDM 2/9 0.8611
14 Carrier, Damien RPO 22:08 40.663 14/54 VBM 6/10 0.8082
15 Till, Michael WQW 22:11 40.571 15/54 VCM 2/6 0.9932
16 Lacroix, Jacob OBC 22:15 40.449 16/54 JUM 2/2 0.9043
17 Campbell, Colin  OBC 22:23 40.208 17/54 VCM 3/6 0.9028
18 Redshaw, Russ  OBC 22:29 40.030 18/54 VDM 3/9 0.9978
19 Corpuz, John OBC 22:44 39.589 19/54 VAM 4/6 0.9503
20 Benavente-Babace, Ainara OBC 22:47 39.503 20/54 VAF 1/1 0.9891
21 Rivoche, Michael WQW 23:02 39.074 21/54 VDM 4/9 0.9530
22 Corner, Doug  OBC 23:09 38.877 22/54 VDM 5/9 1.0843
23 Lawrence, Will OBC 23:12 38.793 23/54 SEM 2/3 0.9122
24 Davis, Doug OBC 23:18 38.627 24/54 VCM 4/6 1.0997
25 Morvan, Jacques  OBC 23:26 38.407 25/54 VEM 1/5 0.9415
26 Leblanc, Marc EUR 23:35 38.163 26/54 VBM 7/10 0.9358
27 Pey Perez, Jon OBC 23:47 37.842 27/54 VAM 5/6 0.9403
28 Posthuma, Hans  OBC 23:49 37.789 28/54 VDM 6/9 0.9264
29 Messier, Jill WQW 23:51 37.736 29/54 SEF 1/1 0.9067
30 Comtois Lecocq, Alex OBC 24:12 37.190 30/54 VAM 6/6 0.9294
31 Buffa, Alex  OBC 24:17 37.062 31/54 VBM 8/10 0.9336
32 Milette, Laury OBC 24:21 36.961 32/54 CAF 1/2 0.9085
33 Gilchrist, Ryan  OBC 24:27 36.810 33/54 VCM 5/6 0.9243
34 Lavergne, Jazmine OBC 24:28 36.785 34/54 CAF 2/2 0.9637
35 Boulanger, Gaetan  IND 24:33 36.660 35/54 VEM 2/5 0.9638
36 Moerman, Bram  OBC 24:38 36.536 36/54 VEM 3/5 0.8887
37 Veilleux, François OBC 25:00 36.000 37/54 VBM 9/10 0.9980
38 Burdett, Avery  OBC 25:30 35.294 38/54 VEM 4/5 0.9728
39 Shand, Peter OBC 25:32 35.248 39/54 VDM 7/9 1.0640
40 Gervais, Dominique OBC 25:37 35.133 40/54 JUF 1/2 0.9961
Miller, Paul RWR 25:37 35.133 40/54 VDM 8/9  
Y 42 Lavergne, Jayde OBC 25:50 34.839 42/54 MIF 1/1 1.0633
43 Balint, John OBC 25:51 34.816 43/54 VEM 5/5 0.9027
44 Martins, Henrique CDO 26:00 34.615 44/54 MIM 1/2 0.8164
Pham, Doug WQW 26:00 34.615 44/54 VCM 6/6 0.9508
46 Levi, Cheryl OBC 26:37 33.813 46/54 VCF 1/1 0.9592
47 Tardif, Magalie OBC 26:46 33.624 47/54 JUF 2/2 0.9870
48 Beauchamp, Angela  EUR 26:58 33.375 48/54 VBF 1/1 0.9259
McInnis, Celia  OBC 26:58 33.375 48/54 VDF 1/1 0.9944
50 Monette, Gary WQW 27:54 32.258 50/54 VDM 9/9 0.9164
51 Patterson, Craig OBC 28:01 32.124 51/54 SEM 3/3 0.9735
52 Deveer, Carter OBC 29:34 30.440 52/54 MIM 2/2 1.0639
53 Au, Steve IND 30:09 29.851 53/54 VBM 10/10  
54 Deveer, Cooper OBC 38:04 23.643 54/54 BBM 1/1 0.4969
 
Average Speed of all of the above 54 finishes (810km in 21:35:52):37.504
>>>Average of the Average Speeds for these 54 finishes38.112<<<
 

The number of data records shown above is 54
The server processing of your query took: 0 wallclock secs ( 0.10 usr + 0.00 sys = 0.10 CPU)

Thanks to our Helpers: Mark Manners, Alex McKnight, Jess Raymond, Peter Tregunno

     


Mar 30 (Good Friday)
May 1 (10km) May 3 May 8 (10km) May 10 May 15 (10km) May 17 May 22 (10km) May 24 May 29 (10km) May 31
Jun 5 Jun 5 Jun 7 Jun 12 Jun 12 Jun 14 Jun 17 (40km) Jun 19 Jun 19 Jun 21 Jun 26 Jun 26 Jun 28
Jul 3 Jul 3 Jul 5 Jul 8 (40km) Jul 10 Jul 10 Jul 12 Jul 17 Jul 17 Jul 19 Jul 24 Jul 24
  Jul 26  
Jul 31 Jul 31
Aug 2 Aug 5 (40km) Aug 7 Aug 7 Aug 9 Aug 14 Aug 14 Aug 16 Aug 21 Aug 21 Aug 23 Aug 28 Aug 28 (Invitational) Aug 30#1 (Eddie Merckx) Aug 30#2 (With Aero)
Sep 2 (40km) Sep 4 Sep 6 Sep 11 Sep 13 Sep 18

OTT Rankings
Best       Best by category
WTT Rankings for All Participants
5 Best Speeds (≥3 15km, ≤1 10km)     5 Best Speeds (≥3 15km, ≤1 10km) by category
OTT Best Three 15km Rankings
Overall     by category     age-Hcap Female   age-Hcap Male
Other years
TT Calculator All TT People All TT events
ABC Home VVV Home
CKAP GOLD MEDAL
Other Links

Note: OTT data from 2003 through 2006-Apr-14 and 2007-Apr-06-? and WTT from 2008-? is taken from the official OBC site.

Please send your comments and suggestions to: Celia McInnis
Copyright © 1998-2011 Celia McInnis. All rights reserved. Links are welcomed.